MCA1507 KATL-KMIA
Flight info
| Callsign | MCA1507 |
|---|---|
| Flight time | N/A |
| Altitude | 33000 |
| Route | BANNG3 LUCKK HONID FROGZ5 |
| Aircraft | B38M/M-SDE1FGHILORVWXY/HB1 |
Departure
| Time | 2026-05-07 22:36 |
|---|---|
| Airport | Hartsfield Jackson Atlanta International Airport (KATL) |
Arrival
| Time | N/A |
|---|---|
| Airport | Miami International Airport (KMIA) |
| Time | Latitude | Longitude | Altitude | Speed | Heading |
|---|---|---|---|---|---|
| 2026-05-07 22:09 | 33.64154 | -84.42885 | 1038 ft | 0 kts | 285° |
| 2026-05-07 22:23 | 33.64149 | -84.42860 | 1038 ft | 4 kts | 275° |
| 2026-05-07 22:24 | 33.64151 | -84.42829 | 1038 ft | 4 kts | 247° |
| 2026-05-07 22:24 | 33.64166 | -84.42810 | 1038 ft | 4 kts | 188° |
| 2026-05-07 22:24 | 33.64175 | -84.42809 | 1038 ft | 0 kts | 180° |
| 2026-05-07 22:27 | 33.64161 | -84.42809 | 1038 ft | 4 kts | 180° |
| 2026-05-07 22:27 | 33.64100 | -84.42809 | 1038 ft | 14 kts | 180° |
| 2026-05-07 22:27 | 33.63981 | -84.42809 | 1038 ft | 16 kts | 180° |
| 2026-05-07 22:27 | 33.63876 | -84.42809 | 1038 ft | 14 kts | 180° |
| 2026-05-07 22:28 | 33.63785 | -84.42810 | 1038 ft | 11 kts | 180° |
| 2026-05-07 22:28 | 33.63740 | -84.42810 | 1038 ft | 0 kts | 181° |
| 2026-05-07 22:29 | 33.63732 | -84.42810 | 1038 ft | 4 kts | 177° |
| 2026-05-07 22:30 | 33.63675 | -84.42777 | 1038 ft | 15 kts | 130° |
| 2026-05-07 22:30 | 33.63658 | -84.42621 | 1038 ft | 21 kts | 91° |
| 2026-05-07 22:30 | 33.63657 | -84.42451 | 1038 ft | 21 kts | 89° |
| 2026-05-07 22:30 | 33.63656 | -84.42297 | 1038 ft | 17 kts | 90° |
| 2026-05-07 22:31 | 33.63656 | -84.42150 | 1038 ft | 18 kts | 89° |
| 2026-05-07 22:31 | 33.63656 | -84.41991 | 1038 ft | 20 kts | 90° |
| 2026-05-07 22:31 | 33.63656 | -84.41820 | 1038 ft | 21 kts | 90° |
| 2026-05-07 22:31 | 33.63657 | -84.41662 | 1038 ft | 19 kts | 90° |
| 2026-05-07 22:32 | 33.63657 | -84.41512 | 1037 ft | 18 kts | 90° |
| 2026-05-07 22:32 | 33.63658 | -84.41356 | 1037 ft | 17 kts | 90° |
| 2026-05-07 22:32 | 33.63657 | -84.41208 | 1038 ft | 18 kts | 90° |
| 2026-05-07 22:32 | 33.63657 | -84.41065 | 1038 ft | 16 kts | 89° |
| 2026-05-07 22:33 | 33.63658 | -84.40975 | 1038 ft | 12 kts | 90° |
| 2026-05-07 22:33 | 33.63581 | -84.40913 | 1038 ft | 0 kts | 181° |
| 2026-05-07 22:34 | 33.63575 | -84.40913 | 1038 ft | 4 kts | 181° |
| 2026-05-07 22:34 | 33.63512 | -84.40916 | 1038 ft | 13 kts | 192° |
| 2026-05-07 22:34 | 33.63472 | -84.41009 | 1038 ft | 10 kts | 270° |
| 2026-05-07 22:34 | 33.63472 | -84.41017 | 1038 ft | 0 kts | 270° |
| 2026-05-07 22:35 | 33.63473 | -84.41057 | 1037 ft | 25 kts | 270° |
| 2026-05-07 22:36 | 33.63471 | -84.41565 | 1037 ft | 95 kts | 270° |
| 2026-05-07 22:36 | 33.63474 | -84.42599 | 1043 ft | 149 kts | 273° |
| 2026-05-07 22:36 | 33.63482 | -84.43945 | 1391 ft | 169 kts | 273° |
| 2026-05-07 22:36 | 33.63481 | -84.45345 | 2171 ft | 168 kts | 268° |
| 2026-05-07 22:37 | 33.63472 | -84.46738 | 2847 ft | 173 kts | 268° |
| 2026-05-07 22:37 | 33.63463 | -84.48263 | 3143 ft | 199 kts | 269° |
| 2026-05-07 22:37 | 33.63457 | -84.50022 | 3527 ft | 221 kts | 268° |
| 2026-05-07 22:37 | 33.63453 | -84.51942 | 4012 ft | 240 kts | 268° |
| 2026-05-07 22:38 | 33.63452 | -84.54022 | 4583 ft | 253 kts | 268° |
| 2026-05-07 22:38 | 33.63452 | -84.56113 | 5539 ft | 250 kts | 268° |
| 2026-05-07 22:38 | 33.63454 | -84.58209 | 6388 ft | 252 kts | 269° |
| 2026-05-07 22:38 | 33.63329 | -84.60296 | 7186 ft | 251 kts | 254° |
| 2026-05-07 22:39 | 33.62489 | -84.62129 | 7974 ft | 256 kts | 230° |
| 2026-05-07 22:39 | 33.61046 | -84.63426 | 8763 ft | 265 kts | 211° |
| 2026-05-07 22:39 | 33.59224 | -84.63993 | 9522 ft | 280 kts | 188° |
| 2026-05-07 22:39 | 33.57253 | -84.63600 | 10213 ft | 297 kts | 169° |
| 2026-05-07 22:40 | 33.55223 | -84.62837 | 10560 ft | 314 kts | 171° |
| 2026-05-07 22:40 | 33.53071 | -84.62095 | 10931 ft | 329 kts | 171° |
| 2026-05-07 22:40 | 33.50837 | -84.61328 | 11513 ft | 336 kts | 171° |
| 2026-05-07 22:40 | 33.48590 | -84.60541 | 12257 ft | 339 kts | 171° |
| 2026-05-07 22:41 | 33.46305 | -84.59740 | 12961 ft | 344 kts | 172° |
| 2026-05-07 22:41 | 33.44027 | -84.58938 | 13694 ft | 348 kts | 172° |
| 2026-05-07 22:41 | 33.41660 | -84.58106 | 14360 ft | 352 kts | 172° |
| 2026-05-07 22:41 | 33.39300 | -84.57277 | 15058 ft | 355 kts | 172° |
| 2026-05-07 22:42 | 33.36948 | -84.56448 | 15723 ft | 359 kts | 172° |
| 2026-05-07 22:42 | 33.34540 | -84.55603 | 16381 ft | 362 kts | 173° |
| 2026-05-07 22:42 | 33.32104 | -84.54746 | 17035 ft | 366 kts | 173° |
| 2026-05-07 22:42 | 33.29643 | -84.53882 | 17647 ft | 370 kts | 173° |
| 2026-05-07 22:43 | 33.27150 | -84.53008 | 18188 ft | 378 kts | 173° |
| 2026-05-07 22:43 | 33.24560 | -84.52113 | 18282 ft | 396 kts | 173° |
| 2026-05-07 22:43 | 33.21853 | -84.51185 | 18316 ft | 414 kts | 172° |
| 2026-05-07 22:43 | 33.19034 | -84.50214 | 18345 ft | 430 kts | 172° |
| 2026-05-07 22:44 | 33.16111 | -84.49201 | 18362 ft | 444 kts | 171° |
| 2026-05-07 22:44 | 33.13108 | -84.48153 | 18478 ft | 453 kts | 171° |
| 2026-05-07 22:44 | 33.10085 | -84.47085 | 18860 ft | 454 kts | 171° |
| 2026-05-07 22:44 | 33.07078 | -84.46019 | 19187 ft | 457 kts | 171° |
| 2026-05-07 22:45 | 33.03980 | -84.44921 | 19512 ft | 460 kts | 171° |
| 2026-05-07 22:45 | 33.00941 | -84.43845 | 19836 ft | 462 kts | 171° |
| 2026-05-07 22:45 | 32.97842 | -84.42765 | 20164 ft | 462 kts | 174° |
| 2026-05-07 22:45 | 32.94702 | -84.42294 | 20477 ft | 452 kts | 185° |
| 2026-05-07 22:46 | 32.91549 | -84.42136 | 20728 ft | 455 kts | 186° |
| 2026-05-07 22:46 | 32.88375 | -84.42021 | 21041 ft | 456 kts | 186° |
| 2026-05-07 22:46 | 32.85191 | -84.41930 | 21338 ft | 459 kts | 186° |
| 2026-05-07 22:46 | 32.81984 | -84.41857 | 21618 ft | 461 kts | 187° |
| 2026-05-07 22:47 | 32.78768 | -84.41790 | 21909 ft | 463 kts | 187° |
| 2026-05-07 22:47 | 32.75535 | -84.41724 | 22181 ft | 466 kts | 187° |
| 2026-05-07 22:47 | 32.72328 | -84.41660 | 22446 ft | 468 kts | 187° |
| 2026-05-07 22:47 | 32.69058 | -84.41594 | 22712 ft | 470 kts | 187° |
| 2026-05-07 22:48 | 32.65780 | -84.41528 | 22975 ft | 473 kts | 187° |
| 2026-05-07 22:48 | 32.62480 | -84.41462 | 23218 ft | 475 kts | 187° |
| 2026-05-07 22:48 | 32.59164 | -84.41396 | 23492 ft | 477 kts | 187° |
| 2026-05-07 22:48 | 32.55840 | -84.41329 | 23702 ft | 479 kts | 187° |
| 2026-05-07 22:49 | 32.52500 | -84.41262 | 23926 ft | 480 kts | 187° |
| 2026-05-07 22:49 | 32.49155 | -84.41195 | 24132 ft | 482 kts | 187° |
| 2026-05-07 22:49 | 32.45793 | -84.41128 | 24364 ft | 483 kts | 187° |
| 2026-05-07 22:49 | 32.42417 | -84.41061 | 24557 ft | 485 kts | 187° |
| 2026-05-07 22:50 | 32.39037 | -84.40993 | 24786 ft | 486 kts | 187° |
| 2026-05-07 22:50 | 32.35653 | -84.40926 | 24999 ft | 487 kts | 187° |
| 2026-05-07 22:50 | 32.32254 | -84.40859 | 25185 ft | 489 kts | 187° |
| 2026-05-07 22:50 | 32.28889 | -84.40791 | 25390 ft | 490 kts | 187° |
| 2026-05-07 22:51 | 32.25469 | -84.40722 | 25634 ft | 490 kts | 187° |
| 2026-05-07 22:51 | 32.22059 | -84.40655 | 25905 ft | 490 kts | 187° |
| 2026-05-07 22:51 | 32.18653 | -84.40587 | 26188 ft | 490 kts | 187° |
| 2026-05-07 22:51 | 32.15243 | -84.40519 | 26482 ft | 489 kts | 187° |
| 2026-05-07 22:52 | 32.11842 | -84.40451 | 26771 ft | 489 kts | 187° |
| 2026-05-07 22:52 | 32.08441 | -84.40383 | 27079 ft | 488 kts | 187° |
| 2026-05-07 22:52 | 32.05043 | -84.40315 | 27407 ft | 488 kts | 187° |
| 2026-05-07 22:52 | 32.01646 | -84.40248 | 27723 ft | 488 kts | 187° |
| 2026-05-07 22:53 | 31.98244 | -84.40180 | 28056 ft | 487 kts | 187° |
| 2026-05-07 22:53 | 31.94854 | -84.40113 | 28404 ft | 487 kts | 187° |
| 2026-05-07 22:53 | 31.91463 | -84.40046 | 28749 ft | 487 kts | 187° |
| 2026-05-07 22:53 | 31.88121 | -84.39979 | 29086 ft | 486 kts | 187° |
| 2026-05-07 22:54 | 31.84725 | -84.39912 | 29437 ft | 486 kts | 187° |
| 2026-05-07 22:54 | 31.81342 | -84.39845 | 29796 ft | 486 kts | 187° |
| 2026-05-07 22:54 | 31.77972 | -84.39778 | 30136 ft | 485 kts | 187° |
| 2026-05-07 22:54 | 31.74595 | -84.39711 | 30436 ft | 485 kts | 187° |
| 2026-05-07 22:55 | 31.71215 | -84.39644 | 30754 ft | 484 kts | 187° |
| 2026-05-07 22:55 | 31.67849 | -84.39578 | 31079 ft | 483 kts | 187° |
| 2026-05-07 22:55 | 31.64482 | -84.39403 | 31396 ft | 490 kts | 179° |
| 2026-05-07 22:55 | 31.61158 | -84.38585 | 31737 ft | 494 kts | 175° |
| 2026-05-07 22:56 | 31.57806 | -84.37748 | 32044 ft | 493 kts | 176° |
| 2026-05-07 22:56 | 31.54450 | -84.36907 | 32367 ft | 492 kts | 175° |
| 2026-05-07 22:56 | 31.51109 | -84.36064 | 32705 ft | 491 kts | 175° |
| 2026-05-07 22:56 | 31.47763 | -84.35217 | 32964 ft | 488 kts | 175° |
| 2026-05-07 22:57 | 31.44512 | -84.34393 | 32983 ft | 470 kts | 176° |
| 2026-05-07 22:57 | 31.38039 | -84.32762 | 32980 ft | 483 kts | 175° |
| 2026-05-07 22:58 | 31.31446 | -84.31098 | 32980 ft | 488 kts | 175° |
| 2026-05-07 22:58 | 31.24794 | -84.29424 | 32982 ft | 488 kts | 175° |
| 2026-05-07 22:59 | 31.18145 | -84.27752 | 32983 ft | 489 kts | 175° |
| 2026-05-07 22:59 | 31.11493 | -84.26082 | 32983 ft | 489 kts | 175° |
| 2026-05-07 23:00 | 31.04829 | -84.24411 | 32988 ft | 489 kts | 175° |
| 2026-05-07 23:00 | 30.98213 | -84.22754 | 32980 ft | 489 kts | 175° |
| 2026-05-07 23:01 | 30.91543 | -84.21087 | 32985 ft | 490 kts | 175° |
| 2026-05-07 23:01 | 30.84875 | -84.19422 | 32987 ft | 490 kts | 175° |
| 2026-05-07 23:02 | 30.78199 | -84.17757 | 32985 ft | 490 kts | 175° |
| 2026-05-07 23:02 | 30.71525 | -84.16095 | 32978 ft | 490 kts | 175° |
| 2026-05-07 23:03 | 30.68236 | -84.15278 | 32974 ft | 490 kts | 175° |
| 2026-05-07 23:03 | 30.61877 | -84.13698 | 32973 ft | 490 kts | 175° |
| 2026-05-07 23:04 | 30.55200 | -84.12041 | 32988 ft | 491 kts | 176° |
| 2026-05-07 23:04 | 30.48522 | -84.10385 | 32970 ft | 490 kts | 176° |
| 2026-05-07 23:05 | 30.41853 | -84.08735 | 32971 ft | 491 kts | 176° |
| 2026-05-07 23:05 | 30.35314 | -84.06227 | 32972 ft | 510 kts | 157° |
| 2026-05-07 23:06 | 30.29155 | -84.02163 | 32972 ft | 513 kts | 157° |
| 2026-05-07 23:06 | 30.22954 | -83.98057 | 32971 ft | 513 kts | 157° |
| 2026-05-07 23:07 | 30.16754 | -83.93950 | 32976 ft | 514 kts | 157° |
| 2026-05-07 23:07 | 30.10552 | -83.89846 | 32985 ft | 514 kts | 157° |
| 2026-05-07 23:08 | 30.04345 | -83.85747 | 32988 ft | 513 kts | 157° |
| 2026-05-07 23:08 | 29.98146 | -83.81658 | 32993 ft | 513 kts | 157° |
| 2026-05-07 23:09 | 29.91939 | -83.77570 | 32996 ft | 513 kts | 157° |
| 2026-05-07 23:09 | 29.85776 | -83.73516 | 32997 ft | 513 kts | 157° |
| 2026-05-07 23:10 | 29.79569 | -83.69439 | 32992 ft | 513 kts | 157° |
| 2026-05-07 23:10 | 29.73368 | -83.65373 | 32995 ft | 513 kts | 157° |
| 2026-05-07 23:11 | 29.67171 | -83.61315 | 32994 ft | 512 kts | 157° |
| 2026-05-07 23:11 | 29.60965 | -83.57257 | 32996 ft | 512 kts | 157° |
| 2026-05-07 23:12 | 29.54806 | -83.53235 | 32999 ft | 512 kts | 156° |
| 2026-05-07 23:12 | 29.48598 | -83.49187 | 33000 ft | 512 kts | 156° |
| 2026-05-07 23:13 | 29.42403 | -83.45154 | 33000 ft | 512 kts | 156° |
| 2026-05-07 23:13 | 29.36197 | -83.41119 | 33003 ft | 512 kts | 156° |
| 2026-05-07 23:14 | 29.29997 | -83.37093 | 33004 ft | 512 kts | 156° |
| 2026-05-07 23:14 | 29.23760 | -83.33322 | 33008 ft | 506 kts | 162° |
| 2026-05-07 23:15 | 29.17320 | -83.30031 | 33004 ft | 506 kts | 162° |
| 2026-05-07 23:15 | 29.10872 | -83.26759 | 33008 ft | 506 kts | 162° |
| 2026-05-07 23:16 | 29.04430 | -83.23497 | 33008 ft | 506 kts | 162° |
| 2026-05-07 23:16 | 28.97976 | -83.20231 | 33010 ft | 506 kts | 162° |
| 2026-05-07 23:17 | 28.91525 | -83.16973 | 33011 ft | 506 kts | 162° |
| 2026-05-07 23:17 | 28.85086 | -83.13724 | 33024 ft | 506 kts | 162° |
| 2026-05-07 23:18 | 28.78641 | -83.10478 | 33010 ft | 506 kts | 162° |
| 2026-05-07 23:18 | 28.72204 | -83.07239 | 33011 ft | 505 kts | 162° |
| 2026-05-07 23:19 | 28.65808 | -83.04025 | 33024 ft | 505 kts | 162° |
| 2026-05-07 23:19 | 28.59373 | -83.00797 | 33017 ft | 505 kts | 162° |
| 2026-05-07 23:20 | 28.52938 | -82.97572 | 33014 ft | 505 kts | 162° |
| 2026-05-07 23:20 | 28.47595 | -82.94898 | 33023 ft | 505 kts | 162° |
| 2026-05-07 23:21 | 28.41151 | -82.91677 | 33018 ft | 504 kts | 161° |
| 2026-05-07 23:21 | 28.34724 | -82.88470 | 33020 ft | 505 kts | 161° |
| 2026-05-07 23:22 | 28.28295 | -82.85264 | 33021 ft | 504 kts | 161° |
| 2026-05-07 23:22 | 28.21871 | -82.82066 | 33025 ft | 504 kts | 161° |
| 2026-05-07 23:23 | 28.15448 | -82.78872 | 33031 ft | 504 kts | 161° |
| 2026-05-07 23:23 | 28.09054 | -82.75697 | 33030 ft | 504 kts | 161° |
| 2026-05-07 23:24 | 28.02629 | -82.72514 | 33035 ft | 503 kts | 162° |
| 2026-05-07 23:24 | 27.99322 | -82.71408 | 33028 ft | 490 kts | 176° |
| 2026-05-07 23:24 | 27.95960 | -82.70769 | 33031 ft | 492 kts | 175° |
| 2026-05-07 23:25 | 27.89256 | -82.69405 | 33025 ft | 492 kts | 175° |
| 2026-05-07 23:25 | 27.82526 | -82.68074 | 33051 ft | 483 kts | 176° |
| 2026-05-07 23:26 | 27.75955 | -82.66780 | 33013 ft | 482 kts | 176° |
| 2026-05-07 23:26 | 27.69337 | -82.65477 | 33016 ft | 482 kts | 176° |
| 2026-05-07 23:27 | 27.59403 | -82.63525 | 33016 ft | 483 kts | 176° |
| 2026-05-07 23:27 | 27.52811 | -82.62163 | 33027 ft | 487 kts | 171° |
| 2026-05-07 23:28 | 27.46328 | -82.60171 | 33042 ft | 478 kts | 171° |
| 2026-05-07 23:28 | 27.39814 | -82.58260 | 33032 ft | 488 kts | 171° |
| 2026-05-07 23:29 | 27.33235 | -82.56346 | 33033 ft | 487 kts | 171° |
| 2026-05-07 23:29 | 27.26649 | -82.54433 | 33031 ft | 488 kts | 171° |
| 2026-05-07 23:30 | 27.20075 | -82.52526 | 33033 ft | 488 kts | 171° |
| 2026-05-07 23:30 | 27.13536 | -82.50632 | 33036 ft | 488 kts | 171° |
| 2026-05-07 23:31 | 27.06946 | -82.48725 | 33033 ft | 488 kts | 171° |
| 2026-05-07 23:31 | 27.00363 | -82.46823 | 33034 ft | 489 kts | 171° |
| 2026-05-07 23:32 | 26.93783 | -82.44861 | 33026 ft | 492 kts | 164° |
| 2026-05-07 23:32 | 26.90699 | -82.43129 | 33027 ft | 501 kts | 149° |
| 2026-05-07 23:32 | 26.87951 | -82.40700 | 33036 ft | 505 kts | 144° |
| 2026-05-07 23:33 | 26.82548 | -82.35633 | 33030 ft | 507 kts | 143° |
| 2026-05-07 23:33 | 26.77182 | -82.30505 | 33022 ft | 507 kts | 143° |
| 2026-05-07 23:34 | 26.71864 | -82.25414 | 33026 ft | 507 kts | 143° |
| 2026-05-07 23:34 | 26.66505 | -82.20290 | 33024 ft | 507 kts | 143° |
| 2026-05-07 23:35 | 26.61142 | -82.15169 | 33020 ft | 507 kts | 142° |
| 2026-05-07 23:35 | 26.55771 | -82.10046 | 33012 ft | 507 kts | 142° |
| 2026-05-07 23:36 | 26.50513 | -82.04836 | 33024 ft | 508 kts | 141° |
| 2026-05-07 23:36 | 26.45268 | -81.99555 | 32735 ft | 503 kts | 141° |
| 2026-05-07 23:37 | 26.42661 | -81.96939 | 31793 ft | 507 kts | 141° |
| 2026-05-07 23:37 | 26.40013 | -81.94283 | 30715 ft | 514 kts | 141° |
| 2026-05-07 23:37 | 26.37342 | -81.91605 | 29799 ft | 516 kts | 141° |
| 2026-05-07 23:37 | 26.34699 | -81.88957 | 28970 ft | 506 kts | 141° |
| 2026-05-07 23:38 | 26.32101 | -81.86356 | 28691 ft | 502 kts | 141° |
| 2026-05-07 23:38 | 26.29530 | -81.83784 | 28492 ft | 504 kts | 141° |
| 2026-05-07 23:38 | 26.26922 | -81.81176 | 28254 ft | 504 kts | 141° |
| 2026-05-07 23:38 | 26.24392 | -81.78488 | 27741 ft | 502 kts | 133° |